Time;durP1;ratioP1;P1;durP2;ratioP2;P2;SDS_P1;SDS_P2;PMS_P1;PMS_P2;Temp;Humidity;BMP_temperature;BMP_pressure;BME280_temperature;BME280_humidity;BME280_pressure;Samples;Min_cycle;Max_cycle;Signal;HPM_P1;HPM_P2
2022/01/20 00:01:47;;;;;;;7.47;5.07;;;3.50;99.90;;;;;;4974931;28;20988;-64
2022/01/20 00:04:20;;;;;;;7.70;4.67;;;3.50;99.90;;;;;;4974341;28;20176;-64
2022/01/20 00:09:34;;;;;;;5.93;4.23;;;3.50;99.90;;;;;;4974617;28;20858;-63
2022/01/20 00:23:29;;;;;;;5.00;4.07;;;3.40;99.90;;;;;;4971600;28;20474;-64
2022/01/20 00:26:06;;;;;;;5.30;4.80;;;3.30;99.90;;;;;;4973974;28;20489;-64
2022/01/20 00:28:47;;;;;;;5.03;4.30;;;3.30;99.90;;;;;;4974259;28;20451;-63
2022/01/20 00:39:04;;;;;;;4.50;3.80;;;3.20;99.90;;;;;;4974105;28;21023;-63
2022/01/20 00:41:30;;;;;;;7.00;5.10;;;3.20;99.90;;;;;;4976179;28;20197;-63
2022/01/20 00:43:56;;;;;;;6.23;4.10;;;3.20;99.90;;;;;;4973651;28;20427;-63
2022/01/20 00:46:21;;;;;;;5.97;4.50;;;3.20;99.90;;;;;;4973863;28;20440;-63
2022/01/20 00:48:47;;;;;;;4.00;3.63;;;3.30;99.90;;;;;;4973853;28;20176;-63
2022/01/20 00:51:13;;;;;;;4.63;4.10;;;3.30;99.90;;;;;;4973389;28;20200;-64
2022/01/20 00:53:43;;;;;;;6.27;4.97;;;3.30;99.90;;;;;;4973588;28;20173;-63
2022/01/20 00:56:11;;;;;;;4.80;3.57;;;3.30;99.90;;;;;;4973630;28;20957;-63
2022/01/20 00:58:36;;;;;;;4.17;3.77;;;3.30;99.90;;;;;;4973321;28;20528;-64
2022/01/20 01:01:02;;;;;;;4.23;3.77;;;3.20;99.90;;;;;;4968457;28;21014;-63
2022/01/20 01:03:27;;;;;;;5.63;4.03;;;3.20;99.90;;;;;;4973387;28;20176;-64
2022/01/20 01:06:12;;;;;;;4.70;4.03;;;3.20;99.90;;;;;;4968893;28;20187;-64
2022/01/20 01:08:38;;;;;;;5.73;3.40;;;3.20;99.90;;;;;;4973438;28;20173;-64
2022/01/20 01:11:04;;;;;;;4.10;3.60;;;3.20;99.90;;;;;;4973255;28;20550;-64
2022/01/20 01:13:30;;;;;;;4.63;4.00;;;3.20;99.90;;;;;;4973407;28;20475;-64
2022/01/20 01:15:56;;;;;;;4.80;3.70;;;3.10;99.90;;;;;;4973120;28;20173;-63
2022/01/20 01:23:34;;;;;;;4.43;3.70;;;3.10;99.90;;;;;;4973368;28;21000;-64
2022/01/20 01:26:22;;;;;;;4.33;3.93;;;3.10;99.90;;;;;;4972592;28;20176;-63
2022/01/20 01:28:49;;;;;;;3.80;3.40;;;3.10;99.90;;;;;;4973378;28;20469;-63
2022/01/20 01:31:33;;;;;;;3.70;3.40;;;3.10;99.90;;;;;;4973207;28;20502;-63
2022/01/20 01:34:17;;;;;;;3.83;3.07;;;3.00;99.90;;;;;;4972937;28;20435;-64
2022/01/20 01:36:51;;;;;;;4.00;3.60;;;3.00;99.90;;;;;;4972624;28;20925;-63
2022/01/20 01:39:17;;;;;;;4.47;3.30;;;3.00;99.90;;;;;;4973159;28;20467;-64
2022/01/20 01:41:44;;;;;;;3.90;2.80;;;3.00;99.90;;;;;;4973080;28;20463;-64
2022/01/20 01:44:11;;;;;;;3.67;3.37;;;3.00;99.90;;;;;;4972286;28;20450;-63
2022/01/20 01:46:38;;;;;;;5.10;3.53;;;3.00;99.90;;;;;;4972172;28;20454;-64
2022/01/20 01:49:04;;;;;;;4.87;3.10;;;3.00;99.90;;;;;;4972783;28;20449;-64
2022/01/20 01:51:30;;;;;;;4.50;3.93;;;3.00;99.90;;;;;;4972408;28;20855;-64
2022/01/20 01:53:55;;;;;;;5.00;3.83;;;3.00;99.90;;;;;;4972692;28;20447;-63
2022/01/20 01:56:21;;;;;;;3.57;3.27;;;3.00;99.90;;;;;;4972625;28;20196;-63
2022/01/20 01:58:47;;;;;;;2.60;2.40;;;3.00;99.90;;;;;;4972804;28;20188;-64
2022/01/20 02:01:12;;;;;;;3.70;2.70;;;3.00;99.90;;;;;;4972322;28;20204;-63
2022/01/20 02:03:57;;;;;;;3.40;3.10;;;2.90;99.90;;;;;;4972049;28;20180;-63
2022/01/20 02:19:56;;;;;;;4.03;2.93;;;3.00;99.90;;;;;;4972269;28;20542;-64
2022/01/20 02:22:22;;;;;;;4.60;3.30;;;3.10;99.90;;;;;;4972351;28;21024;-63
2022/01/20 02:24:47;;;;;;;4.90;3.70;;;3.00;99.90;;;;;;4972492;28;20773;-63
2022/01/20 02:27:13;;;;;;;3.40;3.10;;;3.00;99.90;;;;;;4972473;28;20443;-63
2022/01/20 02:29:39;;;;;;;3.73;3.23;;;3.10;99.90;;;;;;4972462;28;20188;-63
2022/01/20 02:32:04;;;;;;;4.87;3.60;;;3.10;99.90;;;;;;4972428;28;20200;-64
2022/01/20 02:34:31;;;;;;;3.50;3.20;;;3.00;99.90;;;;;;4972385;28;20176;-64
2022/01/20 02:37:00;;;;;;;4.17;3.77;;;3.00;99.90;;;;;;4972139;28;20180;-64
2022/01/20 02:44:54;;;;;;;8.60;3.13;;;3.10;99.90;;;;;;4972086;28;20591;-64
2022/01/20 02:47:23;;;;;;;3.57;2.63;;;3.10;99.90;;;;;;4972160;28;20499;-63
2022/01/20 02:49:49;;;;;;;5.07;3.00;;;3.10;99.90;;;;;;4972190;28;20472;-63
2022/01/20 02:52:15;;;;;;;3.40;2.50;;;3.10;99.90;;;;;;4971835;28;20459;-64
2022/01/20 02:54:41;;;;;;;2.50;2.30;;;3.10;99.90;;;;;;4972359;28;20462;-63
2022/01/20 02:57:07;;;;;;;2.27;2.03;;;3.10;99.90;;;;;;4974058;28;20466;-65
2022/01/20 02:59:34;;;;;;;2.47;2.27;;;3.10;99.90;;;;;;4975550;28;20938;-64
2022/01/20 03:02:01;;;;;;;3.60;2.47;;;3.20;99.90;;;;;;4975463;28;20219;-64
2022/01/20 03:04:27;;;;;;;2.60;2.30;;;3.20;99.90;;;;;;4975421;28;20435;-64
2022/01/20 03:06:53;;;;;;;2.90;2.13;;;3.30;99.90;;;;;;4975782;28;20435;-63
2022/01/20 03:09:19;;;;;;;2.73;2.37;;;3.30;99.90;;;;;;4975720;28;20184;-64
2022/01/20 03:11:46;;;;;;;2.27;1.80;;;3.30;99.90;;;;;;4975749;28;20231;-64
2022/01/20 03:14:11;;;;;;;1.80;1.70;;;3.30;99.90;;;;;;4975319;28;20446;-64
2022/01/20 03:16:37;;;;;;;2.07;1.87;;;3.40;99.90;;;;;;4975505;28;20443;-63
2022/01/20 03:19:02;;;;;;;1.80;1.70;;;3.40;99.90;;;;;;4975622;28;20208;-64
2022/01/20 03:21:28;;;;;;;2.47;2.17;;;3.40;99.90;;;;;;4975356;28;20207;-64
2022/01/20 03:23:53;;;;;;;1.90;1.80;;;3.40;99.90;;;;;;4975336;28;20192;-63
2022/01/20 03:26:19;;;;;;;2.50;1.70;;;3.40;99.90;;;;;;4975471;28;20184;-64
2022/01/20 03:28:44;;;;;;;3.53;1.83;;;3.40;99.90;;;;;;4975268;28;20188;-64
2022/01/20 03:31:10;;;;;;;5.70;2.60;;;3.40;99.90;;;;;;4975362;28;20276;-64
2022/01/20 03:33:35;;;;;;;2.13;1.70;;;3.40;99.90;;;;;;4975422;28;20255;-64
2022/01/20 03:36:01;;;;;;;2.60;2.40;;;3.40;99.90;;;;;;4974823;28;20176;-64
2022/01/20 03:38:26;;;;;;;2.40;1.90;;;3.40;99.90;;;;;;4975392;28;20185;-64
2022/01/20 03:40:52;;;;;;;3.87;2.00;;;3.40;99.90;;;;;;4974767;28;20666;-64
2022/01/20 03:43:18;;;;;;;5.00;2.40;;;3.40;99.90;;;;;;4975147;28;20981;-64
2022/01/20 03:45:49;;;;;;;1.93;1.73;;;3.40;99.90;;;;;;4974908;28;20204;-64
2022/01/20 03:48:15;;;;;;;4.17;2.60;;;3.40;99.90;;;;;;4959399;28;20510;-64
2022/01/20 03:50:59;;;;;;;3.43;2.27;;;3.50;99.90;;;;;;4975194;28;20547;-64
2022/01/20 03:53:25;;;;;;;2.37;1.70;;;3.50;99.90;;;;;;4975063;28;20192;-64
2022/01/20 03:55:50;;;;;;;2.20;1.93;;;3.50;99.90;;;;;;4974618;28;20435;-64
2022/01/20 03:58:16;;;;;;;3.00;2.70;;;3.50;99.90;;;;;;4974833;28;20499;-64
2022/01/20 04:00:43;;;;;;;3.10;2.90;;;3.50;99.90;;;;;;4976761;28;20211;-64
2022/01/20 04:03:13;;;;;;;2.97;2.67;;;3.50;99.90;;;;;;4975566;28;20247;-64
2022/01/20 04:05:53;;;;;;;3.07;2.77;;;3.50;99.90;;;;;;4974593;28;20435;-64
2022/01/20 04:08:19;;;;;;;2.57;2.30;;;3.50;99.90;;;;;;4973478;28;20462;-64
2022/01/20 04:10:44;;;;;;;3.40;3.10;;;3.50;99.90;;;;;;4974768;28;20961;-64
2022/01/20 04:13:10;;;;;;;3.20;2.90;;;3.60;99.90;;;;;;4974761;28;20639;-64
2022/01/20 04:15:40;;;;;;;3.90;3.27;;;3.60;99.90;;;;;;4974232;28;20649;-64
2022/01/20 04:18:07;;;;;;;5.13;2.77;;;3.60;99.90;;;;;;4974381;28;20287;-64
2022/01/20 04:20:33;;;;;;;3.23;2.80;;;3.60;99.90;;;;;;4974286;28;21045;-64
2022/01/20 04:22:58;;;;;;;3.93;3.63;;;3.60;99.90;;;;;;4974227;28;20440;-64
2022/01/20 04:25:25;;;;;;;2.83;2.63;;;3.60;99.90;;;;;;4974147;28;20180;-64
2022/01/20 04:27:50;;;;;;;2.40;2.20;;;3.60;99.90;;;;;;4974225;28;20172;-64
2022/01/20 04:30:16;;;;;;;3.07;2.70;;;3.50;99.90;;;;;;4974247;28;20999;-64
2022/01/20 04:32:41;;;;;;;3.13;2.77;;;3.50;99.90;;;;;;4974289;28;20275;-64
2022/01/20 04:35:07;;;;;;;3.20;2.90;;;3.40;99.90;;;;;;4973665;28;20192;-64
2022/01/20 04:37:33;;;;;;;4.53;3.87;;;3.40;99.90;;;;;;4974061;28;20857;-63
2022/01/20 04:40:01;;;;;;;2.90;2.57;;;3.30;99.90;;;;;;4974050;28;20210;-63
2022/01/20 04:42:28;;;;;;;5.30;3.03;;;3.40;99.90;;;;;;4974071;28;20188;-63
2022/01/20 04:45:00;;;;;;;2.83;2.60;;;3.40;99.90;;;;;;4973748;28;20438;-64
2022/01/20 04:47:45;;;;;;;5.23;3.53;;;3.40;99.90;;;;;;4973935;28;20432;-64
2022/01/20 04:58:22;;;;;;;3.20;2.97;;;3.50;99.90;;;;;;4967016;28;20967;-64
2022/01/20 05:00:48;;;;;;;3.90;3.43;;;3.50;99.90;;;;;;4973301;28;20463;-64
2022/01/20 05:03:13;;;;;;;4.93;3.90;;;3.50;99.90;;;;;;4973529;28;20169;-64
2022/01/20 05:05:39;;;;;;;3.20;2.90;;;3.40;99.90;;;;;;4973524;28;20576;-64
2022/01/20 05:08:05;;;;;;;3.60;3.17;;;3.40;99.90;;;;;;4973510;28;20200;-63
2022/01/20 05:10:33;;;;;;;4.53;3.40;;;3.50;99.90;;;;;;4973642;28;20202;-63
2022/01/20 05:15:25;;;;;;;5.13;4.13;;;3.50;99.90;;;;;;4973462;28;20864;-64
2022/01/20 05:17:55;;;;;;;5.30;4.10;;;3.60;99.90;;;;;;4973198;28;20663;-63
2022/01/20 05:20:21;;;;;;;4.37;3.97;;;3.60;99.90;;;;;;4972604;28;20466;-64
2022/01/20 05:22:46;;;;;;;5.30;4.57;;;3.70;99.90;;;;;;4973164;28;20972;-63
2022/01/20 05:25:12;;;;;;;5.17;4.67;;;3.80;99.90;;;;;;4972560;28;20182;-64
2022/01/20 05:27:37;;;;;;;5.10;4.60;;;3.70;99.90;;;;;;4973135;28;20198;-63
2022/01/20 05:30:04;;;;;;;5.47;4.03;;;3.60;99.90;;;;;;4972800;28;20185;-64
2022/01/20 05:32:29;;;;;;;4.40;4.00;;;3.50;99.90;;;;;;4973257;28;20279;-64
2022/01/20 05:34:55;;;;;;;6.20;3.30;;;3.50;99.90;;;;;;4972843;28;20539;-64
2022/01/20 05:37:20;;;;;;;4.20;3.90;;;3.50;99.90;;;;;;4973123;28;20188;-64
2022/01/20 05:39:46;;;;;;;4.60;3.70;;;3.40;99.90;;;;;;4972843;28;20352;-64
2022/01/20 05:42:11;;;;;;;8.10;5.20;;;3.40;99.90;;;;;;4972876;28;20546;-63
2022/01/20 05:44:37;;;;;;;6.70;4.93;;;3.40;99.90;;;;;;4972923;28;20180;-63
2022/01/20 05:47:09;;;;;;;3.53;3.10;;;3.50;99.90;;;;;;4972791;28;20263;-64
2022/01/20 05:49:34;;;;;;;8.73;3.30;;;3.50;99.90;;;;;;4972443;28;20176;-64
2022/01/20 05:52:00;;;;;;;4.57;3.73;;;3.60;99.90;;;;;;4972321;28;20455;-63
2022/01/20 05:54:25;;;;;;;6.17;4.13;;;3.50;99.90;;;;;;4972573;28;20549;-63
2022/01/20 05:56:51;;;;;;;4.60;3.03;;;3.50;99.90;;;;;;4972367;28;20912;-64
2022/01/20 05:59:18;;;;;;;3.80;3.30;;;3.40;99.90;;;;;;4972854;28;20204;-63
2022/01/20 06:01:51;;;;;;;10.43;4.90;;;3.40;99.90;;;;;;4972276;28;20682;-63
2022/01/20 06:04:17;;;;;;;4.57;3.50;;;3.40;99.90;;;;;;4972458;28;20522;-64
2022/01/20 06:06:44;;;;;;;4.60;4.00;;;3.40;99.90;;;;;;4972600;28;20805;-64
2022/01/20 06:09:10;;;;;;;3.93;3.27;;;3.40;99.90;;;;;;4964146;28;20440;-63
2022/01/20 06:11:35;;;;;;;5.03;3.10;;;3.40;99.90;;;;;;4967621;28;20204;-63
2022/01/20 06:14:01;;;;;;;7.87;4.10;;;3.40;99.90;;;;;;4971815;28;20942;-64
2022/01/20 06:16:27;;;;;;;5.03;3.93;;;3.30;99.90;;;;;;4972509;28;20218;-64
2022/01/20 06:18:52;;;;;;;9.13;3.97;;;3.40;99.90;;;;;;4972314;28;20431;-64
2022/01/20 06:21:18;;;;;;;5.00;4.30;;;3.40;99.90;;;;;;4972446;28;20212;-64
2022/01/20 06:23:44;;;;;;;4.63;3.57;;;3.40;99.90;;;;;;4972350;28;20188;-64
2022/01/20 06:26:10;;;;;;;6.50;3.50;;;3.40;99.90;;;;;;4972115;28;20180;-64
2022/01/20 06:28:37;;;;;;;5.50;3.73;;;3.40;99.90;;;;;;4972490;28;20176;-63
2022/01/20 06:31:03;;;;;;;4.53;2.80;;;3.40;99.90;;;;;;4972378;28;20752;-64
2022/01/20 06:33:29;;;;;;;5.43;2.90;;;3.40;99.90;;;;;;4976076;28;20555;-65
2022/01/20 06:35:55;;;;;;;4.40;3.33;;;3.30;99.90;;;;;;4976007;28;20447;-64
2022/01/20 06:38:21;;;;;;;5.47;3.83;;;3.30;99.90;;;;;;4977460;28;20203;-64
2022/01/20 06:40:47;;;;;;;7.17;3.07;;;3.20;99.90;;;;;;4976324;28;20297;-63
2022/01/20 06:43:13;;;;;;;4.80;3.30;;;3.20;99.90;;;;;;4976403;28;20470;-64
2022/01/20 06:45:38;;;;;;;3.97;3.60;;;3.20;99.90;;;;;;4975861;28;20188;-64
2022/01/20 06:48:04;;;;;;;7.20;3.50;;;3.20;99.90;;;;;;4974032;28;20184;-64
2022/01/20 06:50:29;;;;;;;6.23;2.83;;;3.20;99.90;;;;;;4973070;28;20211;-63
2022/01/20 06:52:55;;;;;;;5.53;3.00;;;3.10;99.90;;;;;;4975414;28;20615;-64
2022/01/20 06:55:21;;;;;;;4.40;4.00;;;3.10;99.90;;;;;;4975656;28;20180;-64
2022/01/20 06:57:47;;;;;;;10.03;4.60;;;3.10;99.90;;;;;;4975630;28;20398;-64
2022/01/20 07:00:17;;;;;;;12.03;3.57;;;3.20;99.90;;;;;;4975803;28;20212;-64
2022/01/20 07:02:44;;;;;;;5.23;3.63;;;3.20;99.90;;;;;;4975426;28;20180;-64
2022/01/20 07:05:13;;;;;;;5.97;4.00;;;3.20;99.90;;;;;;4975147;28;20502;-64
2022/01/20 07:07:39;;;;;;;4.67;3.40;;;3.20;99.90;;;;;;4975919;28;20443;-64
2022/01/20 07:10:05;;;;;;;10.00;4.50;;;3.20;99.90;;;;;;4975806;28;20482;-64
2022/01/20 07:12:31;;;;;;;8.33;4.90;;;3.10;99.90;;;;;;4975422;28;20532;-64
2022/01/20 07:14:56;;;;;;;6.67;4.00;;;3.00;99.90;;;;;;4974954;28;20502;-64
2022/01/20 07:17:22;;;;;;;6.13;4.07;;;2.90;99.90;;;;;;4975474;28;20539;-64
2022/01/20 07:19:47;;;;;;;6.10;4.00;;;2.90;99.90;;;;;;4975432;28;20228;-63
2022/01/20 07:22:13;;;;;;;8.10;3.97;;;2.90;99.90;;;;;;4975515;28;20196;-64
2022/01/20 07:24:39;;;;;;;8.20;4.20;;;2.90;99.90;;;;;;4975312;28;20200;-63
2022/01/20 07:27:04;;;;;;;5.43;3.13;;;2.80;99.90;;;;;;4974709;28;20177;-63
2022/01/20 07:29:31;;;;;;;6.00;4.10;;;2.80;99.90;;;;;;4975649;28;20584;-64
2022/01/20 07:31:59;;;;;;;9.23;4.50;;;2.70;99.90;;;;;;4974559;28;20199;-64
2022/01/20 07:34:24;;;;;;;4.90;3.83;;;2.70;99.90;;;;;;4971191;28;20801;-64
2022/01/20 07:36:50;;;;;;;6.70;4.87;;;2.70;99.90;;;;;;4974830;28;20439;-64
2022/01/20 07:39:16;;;;;;;7.40;3.77;;;2.70;99.90;;;;;;4974646;28;20620;-63
2022/01/20 07:41:41;;;;;;;6.20;3.30;;;2.60;99.90;;;;;;4974076;28;20185;-64
2022/01/20 07:44:08;;;;;;;5.03;3.40;;;2.60;99.90;;;;;;4974654;28;20436;-64
2022/01/20 07:46:33;;;;;;;11.37;3.70;;;2.60;99.90;;;;;;4974033;28;20173;-64
2022/01/20 07:48:59;;;;;;;7.67;3.30;;;2.60;99.90;;;;;;4974694;28;20439;-64
2022/01/20 07:51:24;;;;;;;6.90;4.33;;;2.60;99.90;;;;;;4975065;28;20215;-64
2022/01/20 07:53:50;;;;;;;9.10;5.77;;;2.60;99.90;;;;;;4974920;28;20661;-64
2022/01/20 07:56:16;;;;;;;6.67;4.03;;;2.80;99.90;;;;;;4970283;28;20612;-65
2022/01/20 07:58:41;;;;;;;7.13;4.07;;;3.20;99.90;;;;;;4974602;28;20184;-63
2022/01/20 08:01:07;;;;;;;7.40;4.30;;;3.90;99.90;;;;;;4974854;28;20222;-64
2022/01/20 08:03:33;;;;;;;6.70;3.73;;;4.30;99.90;;;;;;4975160;28;20444;-66
2022/01/20 08:05:58;;;;;;;9.57;4.50;;;4.60;99.90;;;;;;4974780;28;20326;-67
2022/01/20 08:08:24;;;;;;;7.10;3.80;;;5.10;99.90;;;;;;4972560;28;20179;-64
2022/01/20 08:10:49;;;;;;;7.40;3.40;;;5.30;99.90;;;;;;4945941;28;20211;-65
2022/01/20 08:13:15;;;;;;;9.00;4.57;;;5.20;99.90;;;;;;4960589;28;20210;-65
2022/01/20 08:15:40;;;;;;;7.73;4.60;;;4.90;99.90;;;;;;4973668;28;20188;-64
2022/01/20 08:18:07;;;;;;;15.63;4.47;;;4.60;99.90;;;;;;4973898;28;20681;-64
2022/01/20 08:20:33;;;;;;;7.47;4.10;;;4.30;99.90;;;;;;4969504;28;20210;-64
2022/01/20 08:22:59;;;;;;;10.67;3.90;;;4.30;99.90;;;;;;4976155;28;20436;-64
2022/01/20 08:25:26;;;;;;;4.90;3.30;;;4.90;99.90;;;;;;4973768;28;20428;-64
2022/01/20 08:27:51;;;;;;;4.70;3.50;;;5.60;99.90;;;;;;4973656;28;20173;-64
2022/01/20 08:30:19;;;;;;;3.60;3.30;;;6.30;99.90;;;;;;4970367;28;20442;-64
2022/01/20 08:32:46;;;;;;;7.03;3.53;;;6.40;99.90;;;;;;4974097;28;20184;-64
2022/01/20 08:35:12;;;;;;;11.67;4.53;;;6.10;99.90;;;;;;4973172;28;20431;-64
2022/01/20 08:37:42;;;;;;;7.30;3.80;;;5.50;99.90;;;;;;4973725;28;20435;-64
2022/01/20 08:40:11;;;;;;;4.13;3.30;;;5.20;99.90;;;;;;4970045;28;20470;-64
2022/01/20 08:42:37;;;;;;;5.73;3.63;;;4.90;99.90;;;;;;4974030;28;20490;-64
2022/01/20 08:45:03;;;;;;;8.87;4.40;;;4.60;99.90;;;;;;4969134;28;21356;-64
2022/01/20 08:47:29;;;;;;;5.60;3.57;;;4.40;99.90;;;;;;4966270;28;21043;-64
2022/01/20 08:49:55;;;;;;;4.63;4.20;;;4.30;99.90;;;;;;4968375;28;20439;-64
2022/01/20 08:52:28;;;;;;;5.40;3.93;;;4.20;99.90;;;;;;4970322;28;20212;-64
2022/01/20 08:54:54;;;;;;;6.03;3.53;;;4.20;99.90;;;;;;4969428;28;20975;-64
2022/01/20 08:57:19;;;;;;;6.00;3.67;;;4.10;99.90;;;;;;4970223;28;20450;-64
2022/01/20 08:59:45;;;;;;;6.97;3.30;;;4.10;99.90;;;;;;4964291;28;20215;-64
2022/01/20 09:02:11;;;;;;;8.70;4.33;;;4.10;99.90;;;;;;4970152;28;20212;-63
2022/01/20 09:04:37;;;;;;;8.20;3.80;;;4.20;99.90;;;;;;4970257;28;20280;-64
2022/01/20 09:07:03;;;;;;;7.33;3.73;;;4.30;99.90;;;;;;4969759;28;20968;-64
2022/01/20 09:09:29;;;;;;;5.60;4.00;;;4.40;99.90;;;;;;4967353;28;21368;-64
2022/01/20 09:17:25;;;;;;;6.63;3.93;;;4.60;99.90;;;;;;4969617;28;20466;-64
2022/01/20 09:19:52;;;;;;;7.70;4.40;;;4.60;99.90;;;;;;4966381;28;20495;-64
2022/01/20 09:22:18;;;;;;;5.07;3.87;;;4.50;99.90;;;;;;4969738;28;20514;-64
2022/01/20 09:24:45;;;;;;;8.07;3.63;;;4.50;99.90;;;;;;4969959;28;20956;-64
2022/01/20 09:27:12;;;;;;;6.80;3.93;;;4.70;99.90;;;;;;4970071;28;20431;-64
2022/01/20 09:29:37;;;;;;;5.37;3.97;;;4.70;99.90;;;;;;4966194;28;20443;-64
2022/01/20 09:32:06;;;;;;;6.10;3.83;;;4.80;99.90;;;;;;4969465;28;20466;-64
2022/01/20 09:34:31;;;;;;;6.90;3.70;;;4.90;99.90;;;;;;4969736;28;20191;-64
2022/01/20 09:36:57;;;;;;;4.23;3.57;;;4.80;99.90;;;;;;4969305;28;20432;-64
2022/01/20 09:39:23;;;;;;;7.30;4.87;;;4.90;99.90;;;;;;4967425;28;20207;-64
2022/01/20 09:41:49;;;;;;;8.70;4.07;;;5.00;99.90;;;;;;4969195;28;20503;-65
2022/01/20 09:44:14;;;;;;;9.37;3.50;;;5.20;99.90;;;;;;4969585;28;20263;-64
2022/01/20 09:46:41;;;;;;;6.90;3.90;;;5.20;99.90;;;;;;4969407;28;20522;-64
2022/01/20 09:49:09;;;;;;;7.23;3.70;;;5.30;99.90;;;;;;4967030;28;20862;-64
2022/01/20 09:51:34;;;;;;;6.23;3.30;;;5.40;99.90;;;;;;4968333;28;20467;-64
2022/01/20 09:54:00;;;;;;;7.90;4.07;;;5.40;99.90;;;;;;4970595;28;20505;-64
2022/01/20 09:56:26;;;;;;;8.70;3.30;;;5.30;99.90;;;;;;4970869;28;20259;-64
2022/01/20 09:58:51;;;;;;;6.50;3.60;;;5.20;99.90;;;;;;4972668;28;20259;-64
2022/01/20 10:01:43;;;;;;;6.47;3.90;;;5.40;99.90;;;;;;4968868;28;20706;-63
2022/01/20 10:04:18;;;;;;;7.03;3.70;;;5.40;99.90;;;;;;4963883;28;20689;-63
2022/01/20 10:07:14;;;;;;;8.90;3.60;;;5.30;99.90;;;;;;4971108;28;20439;-64
2022/01/20 10:09:45;;;;;;;6.53;3.80;;;5.40;99.90;;;;;;4959388;28;20455;-64
2022/01/20 10:12:15;;;;;;;8.80;4.20;;;5.60;99.90;;;;;;4972403;28;20458;-64
2022/01/20 10:14:41;;;;;;;8.57;5.07;;;5.60;99.90;;;;;;4972371;28;20486;-64
2022/01/20 10:17:33;;;;;;;7.47;4.83;;;5.60;99.90;;;;;;4971892;28;20451;-64
2022/01/20 10:20:07;;;;;;;7.53;4.00;;;5.50;99.90;;;;;;4961052;28;20558;-64
2022/01/20 10:22:35;;;;;;;5.50;3.80;;;5.40;99.90;;;;;;4972296;28;20547;-64
2022/01/20 10:25:02;;;;;;;6.37;3.50;;;5.30;99.90;;;;;;4969546;28;20463;-63
2022/01/20 10:27:32;;;;;;;7.63;3.93;;;5.20;99.90;;;;;;4969505;28;20451;-63
2022/01/20 10:30:07;;;;;;;7.50;4.20;;;5.30;99.90;;;;;;4961843;28;20440;-64
2022/01/20 10:32:43;;;;;;;14.23;5.20;;;5.30;99.90;;;;;;4972072;28;20466;-63
2022/01/20 10:35:10;;;;;;;7.37;3.27;;;5.60;99.90;;;;;;4970095;28;20442;-64
2022/01/20 10:37:37;;;;;;;10.87;4.20;;;6.20;99.90;;;;;;4971914;28;20439;-64
2022/01/20 10:40:12;;;;;;;7.70;3.90;;;6.60;99.90;;;;;;4964603;28;20453;-63
2022/01/20 10:42:43;;;;;;;5.73;4.00;;;6.60;99.90;;;;;;4970652;28;20445;-64
2022/01/20 10:45:19;;;;;;;8.90;4.13;;;6.40;99.90;;;;;;4966154;28;20431;-64
2022/01/20 10:47:49;;;;;;;4.47;3.43;;;6.10;99.90;;;;;;4971883;28;20439;-63
2022/01/20 10:50:18;;;;;;;6.73;3.10;;;6.00;99.90;;;;;;4968023;28;20444;-64
2022/01/20 10:52:44;;;;;;;7.90;4.17;;;5.90;99.90;;;;;;4971517;28;20522;-63
2022/01/20 10:55:48;;;;;;;5.77;2.73;;;5.70;99.90;;;;;;4971664;28;20431;-63
2022/01/20 10:58:23;;;;;;;8.63;3.03;;;5.70;99.90;;;;;;4964300;28;20840;-63
2022/01/20 11:00:51;;;;;;;6.47;2.77;;;5.50;99.90;;;;;;4965921;28;20466;-64
2022/01/20 11:03:18;;;;;;;7.03;3.80;;;5.30;99.90;;;;;;4968152;28;20442;-64
2022/01/20 11:05:48;;;;;;;5.70;3.30;;;5.30;99.90;;;;;;4971056;28;20519;-64
2022/01/20 11:08:14;;;;;;;9.50;3.67;;;5.40;99.90;;;;;;4971715;28;20459;-64
2022/01/20 11:10:42;;;;;;;6.90;3.80;;;5.40;99.90;;;;;;4967848;28;20478;-64
2022/01/20 11:13:09;;;;;;;6.10;4.20;;;5.40;99.90;;;;;;4971682;28;20608;-65
2022/01/20 11:15:35;;;;;;;3.77;3.37;;;5.30;99.90;;;;;;4971341;28;20443;-64
2022/01/20 11:18:01;;;;;;;8.47;4.30;;;5.20;99.90;;;;;;4973738;28;20541;-64
2022/01/20 11:20:29;;;;;;;7.50;4.27;;;5.20;99.90;;;;;;4971834;28;20204;-65
2022/01/20 11:23:07;;;;;;;12.27;4.10;;;5.10;99.90;;;;;;4975174;28;20442;-65
2022/01/20 11:25:35;;;;;;;9.37;4.53;;;5.10;99.90;;;;;;4975256;28;20971;-65
2022/01/20 11:28:03;;;;;;;9.10;4.30;;;5.10;99.90;;;;;;4975214;28;20502;-64
2022/01/20 11:30:29;;;;;;;8.40;4.63;;;5.00;99.90;;;;;;4971907;28;20462;-65
2022/01/20 11:33:07;;;;;;;7.73;4.80;;;5.10;99.90;;;;;;4975254;28;20439;-65
2022/01/20 11:35:43;;;;;;;7.53;4.53;;;5.20;99.90;;;;;;4975094;28;20514;-65
2022/01/20 11:38:11;;;;;;;4.27;3.53;;;5.20;99.90;;;;;;4974674;28;20447;-65
2022/01/20 11:40:49;;;;;;;8.70;4.00;;;5.30;99.90;;;;;;4971560;28;20470;-65
2022/01/20 11:43:15;;;;;;;6.03;3.83;;;5.40;99.90;;;;;;4975664;28;20439;-64
2022/01/20 11:45:50;;;;;;;4.90;3.87;;;5.50;99.90;;;;;;4974999;28;20486;-65
2022/01/20 11:48:15;;;;;;;5.60;3.40;;;5.90;99.90;;;;;;4974570;28;20211;-65
2022/01/20 11:50:43;;;;;;;5.67;3.07;;;7.60;99.90;;;;;;4970695;28;20502;-65
2022/01/20 11:53:19;;;;;;;3.07;2.77;;;10.10;99.90;;;;;;4971668;28;20185;-65
2022/01/20 11:55:55;;;;;;;4.47;2.93;;;12.30;99.90;;;;;;4972556;28;20793;-65
2022/01/20 11:58:26;;;;;;;5.07;3.80;;;13.00;99.90;;;;;;4975515;28;20411;-65
2022/01/20 12:01:00;;;;;;;5.27;3.60;;;11.80;99.90;;;;;;4971694;28;20558;-65
2022/01/20 12:03:26;;;;;;;6.87;3.57;;;10.80;99.90;;;;;;4974872;28;20459;-64
2022/01/20 12:06:23;;;;;;;5.60;3.57;;;9.80;99.90;;;;;;4974962;28;20806;-65
2022/01/20 12:09:04;;;;;;;4.30;2.83;;;9.40;99.90;;;;;;4974842;28;20506;-65
2022/01/20 12:11:48;;;;;;;4.67;2.90;;;9.30;99.90;;;;;;4973565;28;20440;-64
2022/01/20 12:14:25;;;;;;;13.13;9.03;;;8.80;99.90;;;;;;4974727;28;20445;-65
2022/01/20 12:16:50;;;;;;;6.50;3.10;;;8.80;99.90;;;;;;4974434;28;20431;-64
2022/01/20 12:19:16;;;;;;;3.30;2.00;;;8.20;99.90;;;;;;4972208;28;20514;-65
2022/01/20 12:21:47;;;;;;;4.40;2.93;;;7.70;99.90;;;;;;4974254;28;20283;-65
2022/01/20 12:24:13;;;;;;;7.63;5.70;;;7.10;99.90;;;;;;4974665;28;20251;-65
2022/01/20 12:26:38;;;;;;;5.40;2.90;;;6.60;99.90;;;;;;4974676;28;20416;-64
2022/01/20 12:29:09;;;;;;;5.77;2.80;;;6.50;99.90;;;;;;4975322;28;20646;-64
2022/01/20 12:31:45;;;;;;;6.57;3.60;;;6.30;99.90;;;;;;4973110;28;20199;-65
2022/01/20 12:34:12;;;;;;;8.87;3.10;;;6.00;99.90;;;;;;4974544;28;20435;-65
2022/01/20 12:36:39;;;;;;;5.00;2.80;;;5.90;99.90;;;;;;4973816;28;20502;-65
2022/01/20 12:39:05;;;;;;;5.37;2.50;;;5.80;99.90;;;;;;4972148;28;20494;-65
2022/01/20 12:41:31;;;;;;;8.10;3.33;;;5.90;99.90;;;;;;4972878;28;20467;-65
2022/01/20 12:44:05;;;;;;;1.90;1.80;;;5.80;99.90;;;;;;4974436;28;20436;-65
2022/01/20 12:46:37;;;;;;;4.90;1.40;;;5.40;99.90;;;;;;4973734;28;20554;-65
2022/01/20 12:49:09;;;;;;;2.00;1.33;;;4.70;99.90;;;;;;4972463;28;20796;-65
2022/01/20 12:51:39;;;;;;;1.97;1.43;;;4.10;99.90;;;;;;4972876;28;20462;-65
2022/01/20 12:54:16;;;;;;;7.80;2.30;;;3.70;99.90;;;;;;4974126;28;20522;-65
2022/01/20 12:56:44;;;;;;;5.83;2.90;;;3.50;99.90;;;;;;4973168;28;20510;-66
2022/01/20 12:59:11;;;;;;;6.17;2.90;;;3.40;99.90;;;;;;4970744;28;20862;-67
2022/01/20 13:01:45;;;;;;;7.33;3.90;;;3.20;99.90;;;;;;4965580;28;20472;-70
2022/01/20 13:04:13;;;;;;;6.70;3.57;;;3.20;99.90;;;;;;4973595;28;20432;-65
2022/01/20 13:06:46;;;;;;;8.20;3.53;;;3.20;99.90;;;;;;4973251;28;20534;-65
2022/01/20 13:09:13;;;;;;;4.13;2.80;;;3.20;99.90;;;;;;4970830;28;20493;-66
2022/01/20 13:11:52;;;;;;;5.80;2.80;;;3.10;99.90;;;;;;4972384;28;20534;-65
2022/01/20 13:14:18;;;;;;;7.10;4.73;;;3.00;99.90;;;;;;4973321;28;20430;-65
2022/01/20 13:16:55;;;;;;;7.10;3.40;;;2.90;99.90;;;;;;4973092;28;20432;-66
2022/01/20 13:19:32;;;;;;;5.13;2.67;;;3.00;99.90;;;;;;4969936;28;20479;-65
2022/01/20 13:21:58;;;;;;;6.90;2.40;;;2.90;99.90;;;;;;4973072;28;20459;-65
2022/01/20 13:24:31;;;;;;;5.27;2.17;;;2.80;99.90;;;;;;4973117;28;20431;-65
2022/01/20 13:26:58;;;;;;;8.20;1.87;;;2.80;99.90;;;;;;4972157;28;20199;-65
2022/01/20 13:29:25;;;;;;;4.00;1.80;;;3.00;99.90;;;;;;4970438;28;20968;-65
2022/01/20 13:31:54;;;;;;;3.03;1.47;;;3.10;99.90;;;;;;4967539;28;20469;-65
2022/01/20 13:34:20;;;;;;;3.37;1.93;;;3.20;99.90;;;;;;4972745;28;20968;-65
2022/01/20 13:36:48;;;;;;;5.57;2.60;;;3.30;99.90;;;;;;4971834;28;20436;-65
2022/01/20 13:39:29;;;;;;;3.77;2.50;;;3.50;99.90;;;;;;4966630;28;20818;-65
2022/01/20 13:45:13;;;;;;;3.67;3.07;;;3.50;99.90;;;;;;4972304;28;20451;-65
2022/01/20 13:47:59;;;;;;;5.50;2.17;;;3.60;99.90;;;;;;4972776;28;20434;-67
2022/01/20 13:50:33;;;;;;;4.90;2.70;;;3.50;99.90;;;;;;4965217;28;20499;-65
2022/01/20 13:53:01;;;;;;;2.93;2.07;;;3.60;99.90;;;;;;4972498;28;20446;-65
2022/01/20 13:55:37;;;;;;;9.43;2.70;;;3.60;99.90;;;;;;4971972;28;20444;-65
2022/01/20 13:58:03;;;;;;;5.70;2.10;;;3.50;99.90;;;;;;4972185;28;20802;-66
2022/01/20 14:00:31;;;;;;;5.23;2.50;;;3.50;99.90;;;;;;4963913;28;20456;-65
2022/01/20 14:02:57;;;;;;;7.37;2.40;;;3.60;99.90;;;;;;4971355;28;20447;-65
2022/01/20 14:05:28;;;;;;;4.73;2.60;;;3.60;99.90;;;;;;4971843;28;20439;-64
2022/01/20 14:07:53;;;;;;;4.77;2.70;;;3.70;99.90;;;;;;4972754;28;20444;-65